createdAt,value
2022-11-06T00:00:36.833Z,20.60
2022-11-06T03:11:48.228Z,11.45
2022-11-06T03:14:58.570Z,10.25
2022-11-06T07:03:22.491Z,44.00
2022-11-06T07:05:50.675Z,53.95
2022-11-06T07:08:18.830Z,48.28
2022-11-06T07:10:47.717Z,45.45
2022-11-06T07:57:07.704Z,50.15
2022-11-06T07:59:36.080Z,42.05
2022-11-06T08:02:04.498Z,39.88
2022-11-06T08:04:39.457Z,76.90
2022-11-06T08:07:08.592Z,29.98
2022-11-06T08:10:31.010Z,21.58
2022-11-06T08:13:29.486Z,18.42
2022-11-06T08:16:59.009Z,16.77
2022-11-06T08:19:29.868Z,19.05
2022-11-06T08:22:02.416Z,17.13
2022-11-06T08:24:38.072Z,21.55
2022-11-06T08:27:09.949Z,18.38
2022-11-06T08:29:43.623Z,19.83
2022-11-06T08:32:15.375Z,34.05
2022-11-06T08:34:44.441Z,38.83
2022-11-06T08:37:12.626Z,27.02
2022-11-06T08:39:40.944Z,25.70
2022-11-06T08:42:09.637Z,37.80
2022-11-06T08:44:39.439Z,17.35
2022-11-06T08:47:10.388Z,17.02
2022-11-06T08:49:41.815Z,20.13
2022-11-06T08:52:24.105Z,14.65
2022-11-06T08:55:14.658Z,17.23
2022-11-06T09:03:39.273Z,21.20
2022-11-06T09:06:10.164Z,17.90
2022-11-06T09:08:42.300Z,22.05
2022-11-06T09:11:15.926Z,19.30
2022-11-06T09:13:49.975Z,24.85
2022-11-06T09:16:27.382Z,22.65
2022-11-06T09:19:25.770Z,25.00
2022-11-06T09:22:13.659Z,21.00
2022-11-06T09:25:02.426Z,22.70
2022-11-06T09:27:52.092Z,91.75
2022-11-06T09:30:51.931Z,37.40
2022-11-06T09:33:20.984Z,26.65
2022-11-06T09:36:32.898Z,19.75
2022-11-06T09:39:10.873Z,19.45
2022-11-06T09:41:51.960Z,17.45
2022-11-06T09:44:39.104Z,24.67
2022-11-06T09:47:21.310Z,19.90
2022-11-06T09:50:07.350Z,23.42
2022-11-06T09:52:44.327Z,21.42
2022-11-06T09:55:32.164Z,14.00
2022-11-06T09:58:05.662Z,20.58
2022-11-06T10:00:34.486Z,16.92
2022-11-06T10:03:15.330Z,16.08
2022-11-06T10:05:45.560Z,21.52
2022-11-06T10:08:18.966Z,18.05
2022-11-06T10:11:01.534Z,15.63
2022-11-06T10:13:45.076Z,16.58
2022-11-06T10:16:53.576Z,21.42
2022-11-06T10:20:06.486Z,22.75
2022-11-06T10:22:40.415Z,16.52
2022-11-06T10:25:22.265Z,13.45
2022-11-06T10:28:02.317Z,16.08
2022-11-06T10:30:43.700Z,16.98
2022-11-06T10:33:59.487Z,12.85
2022-11-06T10:36:33.435Z,16.02
2022-11-06T10:39:06.250Z,16.95
2022-11-06T10:41:39.366Z,14.88
2022-11-06T10:44:16.644Z,14.77
2022-11-06T10:46:51.354Z,15.38
2022-11-06T10:49:29.708Z,19.25
2022-11-06T10:52:15.005Z,14.13
2022-11-06T10:55:17.038Z,13.25
2022-11-06T10:58:27.161Z,13.50
2022-11-06T11:01:03.322Z,15.68
2022-11-06T11:03:34.075Z,26.30
2022-11-06T11:06:08.136Z,21.83
2022-11-06T11:08:42.509Z,14.88
2022-11-06T11:11:53.527Z,13.50
2022-11-06T11:14:28.754Z,17.15
2022-11-06T11:17:00.096Z,15.32
2022-11-06T11:19:55.006Z,14.13
2022-11-06T11:26:27.760Z,10.65
2022-11-06T11:29:01.690Z,19.30
2022-11-06T11:31:56.335Z,14.93
2022-11-06T11:38:49.804Z,14.30
2022-11-06T11:41:38.829Z,14.10
2022-11-06T11:44:22.207Z,16.52
2022-11-06T11:47:23.991Z,10.30
2022-11-06T11:49:53.745Z,14.60
2022-11-06T11:52:23.998Z,13.63
2022-11-06T11:54:55.299Z,15.07
2022-11-06T11:57:27.248Z,14.30
2022-11-06T12:00:00.616Z,13.68
2022-11-06T12:02:39.082Z,10.50
2022-11-06T12:05:13.040Z,11.50
2022-11-06T12:07:47.556Z,12.65
2022-11-06T12:10:28.284Z,12.77
2022-11-06T12:12:58.449Z,9.45
2022-11-06T12:15:30.623Z,11.18
2022-11-06T12:18:04.804Z,8.70
2022-11-06T12:20:44.407Z,12.45
2022-11-06T12:23:27.180Z,11.13
2022-11-06T12:26:03.735Z,13.88
2022-11-06T12:28:34.405Z,15.02
2022-11-06T12:36:51.841Z,10.25
2022-11-06T12:39:27.343Z,10.10
2022-11-06T12:41:59.499Z,11.43
2022-11-06T12:44:37.674Z,11.30
2022-11-06T12:47:35.598Z,11.60
2022-11-06T12:50:23.777Z,15.23
2022-11-06T12:53:28.378Z,15.35
2022-11-06T12:56:07.487Z,16.33
2022-11-06T12:58:53.397Z,15.65
2022-11-06T13:11:15.641Z,18.08
2022-11-06T13:14:08.266Z,13.65
2022-11-06T13:16:46.479Z,15.73
2022-11-06T13:19:28.028Z,20.50
2022-11-06T13:22:21.319Z,17.42
2022-11-06T13:25:15.106Z,17.23
2022-11-06T13:28:28.739Z,14.57
2022-11-06T13:34:46.803Z,16.88
2022-11-06T13:41:06.716Z,15.73
2022-11-06T13:47:35.343Z,20.45
2022-11-06T13:50:35.638Z,18.58
2022-11-06T13:53:20.630Z,21.98
2022-11-06T13:56:04.496Z,20.58
2022-11-06T13:59:12.862Z,21.52
2022-11-06T14:01:55.451Z,15.65
2022-11-06T14:04:42.923Z,19.67
2022-11-06T14:07:26.934Z,21.85
2022-11-06T14:10:13.852Z,17.35
2022-11-06T14:12:52.527Z,19.83
2022-11-06T14:19:26.395Z,21.05
2022-11-06T14:22:22.476Z,18.92
2022-11-06T14:25:03.644Z,17.95
2022-11-06T14:28:25.244Z,19.63
2022-11-06T14:34:09.254Z,17.20
2022-11-06T14:37:03.551Z,21.05
2022-11-06T14:40:20.567Z,20.67
2022-11-06T14:42:56.363Z,19.95
2022-11-06T14:45:35.481Z,17.40
2022-11-06T14:48:09.276Z,20.90
2022-11-06T14:50:41.882Z,24.73
2022-11-06T14:53:34.138Z,27.30
2022-11-06T14:56:17.494Z,23.27
2022-11-06T14:59:13.032Z,25.33
2022-11-06T15:05:16.721Z,32.00
2022-11-06T15:08:23.242Z,26.13
2022-11-06T16:19:27.238Z,106.32
2022-11-06T16:31:14.289Z,91.95
2022-11-06T16:34:19.627Z,57.28
2022-11-06T16:37:12.150Z,57.45
2022-11-06T16:39:56.374Z,45.13
2022-11-06T16:42:40.081Z,45.45
2022-11-06T17:42:14.391Z,46.00
2022-11-06T17:50:52.055Z,50.30
2022-11-06T18:31:58.510Z,37.80
2022-11-06T18:35:05.525Z,38.42
2022-11-06T18:46:08.052Z,34.95
2022-11-06T18:53:33.869Z,40.17
2022-11-06T19:13:14.171Z,41.38
2022-11-06T19:26:04.515Z,36.55
2022-11-06T19:37:55.546Z,32.83
2022-11-06T20:02:57.648Z,30.73
2022-11-06T20:05:40.055Z,25.20
2022-11-06T20:11:27.333Z,30.50
2022-11-06T20:14:56.174Z,30.05
2022-11-06T20:24:52.600Z,27.53
2022-11-06T20:30:43.387Z,33.08
2022-11-06T20:33:28.564Z,25.60
2022-11-06T20:36:15.498Z,38.15
2022-11-06T20:38:51.609Z,35.50
2022-11-06T20:44:45.849Z,31.63
2022-11-06T20:47:23.030Z,27.25
2022-11-06T20:50:09.587Z,30.25
2022-11-06T20:53:45.465Z,32.72
2022-11-06T20:56:26.914Z,26.90
2022-11-06T20:59:16.023Z,34.22
2022-11-06T21:02:02.740Z,29.95
2022-11-06T21:04:37.637Z,34.08
2022-11-06T21:07:15.777Z,28.90
2022-11-06T21:09:59.247Z,34.20
2022-11-06T21:12:49.115Z,31.70
2022-11-06T21:15:23.165Z,28.15
2022-11-06T21:18:15.574Z,27.80
2022-11-06T21:20:51.165Z,21.42
2022-11-06T21:23:19.918Z,23.85
2022-11-06T21:26:05.817Z,23.52
2022-11-06T21:28:41.477Z,28.52
2022-11-06T21:31:23.266Z,25.15
2022-11-06T21:34:11.546Z,26.02
2022-11-06T21:36:46.779Z,27.83
2022-11-06T21:39:20.329Z,25.50
2022-11-06T21:41:51.058Z,30.83
2022-11-06T21:44:26.881Z,27.63
2022-11-06T21:47:01.390Z,27.30
2022-11-06T21:49:31.368Z,24.45
2022-11-06T21:52:18.334Z,23.25
2022-11-06T21:55:13.722Z,21.73
2022-11-06T21:57:55.235Z,20.98
2022-11-06T22:00:23.861Z,23.08
2022-11-06T22:02:54.254Z,20.05
2022-11-06T22:05:23.816Z,26.38
2022-11-06T22:07:55.594Z,20.63
2022-11-06T22:11:16.791Z,28.92
2022-11-06T22:13:52.438Z,20.75
2022-11-06T22:16:29.697Z,26.33
2022-11-06T22:19:01.864Z,22.70
2022-11-06T22:21:34.412Z,23.30
2022-11-06T22:24:20.564Z,21.10
2022-11-06T22:27:06.023Z,22.15
2022-11-06T22:29:49.065Z,24.90
2022-11-06T22:33:05.923Z,18.95
2022-11-06T22:39:19.704Z,34.58
2022-11-06T22:42:13.183Z,26.75
2022-11-06T22:44:50.478Z,19.73
2022-11-06T22:47:28.610Z,18.02
2022-11-06T22:50:13.398Z,16.83
2022-11-06T22:53:15.628Z,16.25
2022-11-06T22:55:48.851Z,15.10
2022-11-06T22:58:29.448Z,16.52
2022-11-06T23:01:44.981Z,17.52
2022-11-06T23:05:24.810Z,13.25
2022-11-06T23:08:48.011Z,18.65
2022-11-06T23:20:14.266Z,16.63
2022-11-06T23:22:55.683Z,19.95
2022-11-06T23:25:27.994Z,14.55
2022-11-06T23:28:03.103Z,16.13
2022-11-06T23:30:32.494Z,16.70
2022-11-06T23:33:37.396Z,18.65
2022-11-06T23:36:54.971Z,15.65
2022-11-06T23:40:19.031Z,17.58
2022-11-06T23:48:08.637Z,16.60
2022-11-06T23:51:51.836Z,15.45
2022-11-06T23:54:49.133Z,15.80
